Time;durP1;ratioP1;P1;durP2;ratioP2;P2;SDS_P1;SDS_P2;PMS_P1;PMS_P2;Temp;Humidity;BMP_temperature;BMP_pressure;BME280_temperature;BME280_humidity;BME280_pressure;Samples;Min_cycle;Max_cycle;Signal;HPM_P1;HPM_P2
2021/12/01 00:02:22;;;;;;;1.58;0.50;;;16.70;70.90;;;;;;5092201;28;20398;-77
2021/12/01 00:04:47;;;;;;;1.00;0.30;;;16.70;70.80;;;;;;5091985;28;20031;-77
2021/12/01 00:07:13;;;;;;;0.47;0.22;;;16.60;70.80;;;;;;5092206;28;20100;-77
2021/12/01 00:09:39;;;;;;;0.30;0.20;;;16.60;70.90;;;;;;5092252;28;20107;-77
2021/12/01 00:12:05;;;;;;;0.22;0.20;;;16.60;70.90;;;;;;5092316;28;20036;-77
2021/12/01 00:14:30;;;;;;;0.40;0.30;;;16.60;71.00;;;;;;5092194;28;20072;-77
2021/12/01 00:16:56;;;;;;;1.75;0.40;;;16.60;71.10;;;;;;5091840;28;20433;-78
2021/12/01 00:19:21;;;;;;;1.83;0.50;;;16.60;71.20;;;;;;5091922;28;20119;-77
2021/12/01 00:21:47;;;;;;;1.00;0.32;;;16.50;71.10;;;;;;5091577;28;20020;-77
2021/12/01 00:24:13;;;;;;;0.55;0.35;;;16.50;71.10;;;;;;5107587;28;20028;-78
2021/12/01 00:26:38;;;;;;;0.93;0.40;;;16.50;71.20;;;;;;5092056;28;20107;-77
2021/12/01 00:29:04;;;;;;;0.90;0.40;;;16.50;71.20;;;;;;5091907;28;20028;-77
2021/12/01 00:31:30;;;;;;;0.73;0.40;;;16.50;71.20;;;;;;5091868;28;20024;-77
2021/12/01 00:33:56;;;;;;;0.70;0.40;;;16.50;71.30;;;;;;5091556;28;20024;-77
2021/12/01 00:36:22;;;;;;;0.55;0.30;;;16.40;71.20;;;;;;5091691;28;20033;-77
2021/12/01 00:38:48;;;;;;;0.68;0.32;;;16.40;71.40;;;;;;5091451;28;20046;-77
2021/12/01 00:41:14;;;;;;;0.90;0.40;;;16.40;71.50;;;;;;5091570;28;20424;-78
2021/12/01 00:43:40;;;;;;;1.40;0.50;;;16.40;71.50;;;;;;5091417;28;20042;-77
2021/12/01 00:48:36;;;;;;;2.05;0.50;;;16.40;71.50;;;;;;5091947;28;20024;-77
2021/12/01 00:51:02;;;;;;;0.30;0.30;;;16.40;71.60;;;;;;5091469;28;20020;-77
2021/12/01 00:53:27;;;;;;;0.88;0.30;;;16.40;71.60;;;;;;5091582;28;20107;-78
2021/12/01 00:55:53;;;;;;;0.45;0.30;;;16.30;71.50;;;;;;5091212;28;20479;-78
2021/12/01 00:58:19;;;;;;;0.60;0.40;;;16.30;71.50;;;;;;5091346;28;20031;-77
2021/12/01 01:00:48;;;;;;;0.85;0.40;;;16.30;71.70;;;;;;5090977;28;20032;-78
2021/12/01 01:03:14;;;;;;;1.25;0.40;;;16.30;71.70;;;;;;5091240;28;20035;-77
2021/12/01 01:05:40;;;;;;;2.30;0.40;;;16.30;71.70;;;;;;5091091;28;20020;-77
2021/12/01 01:08:07;;;;;;;0.73;0.22;;;16.30;71.70;;;;;;5091717;28;20028;-78
2021/12/01 01:18:41;;;;;;;1.00;0.40;;;16.20;71.90;;;;;;5091602;28;20047;-78
2021/12/01 01:21:08;;;;;;;0.47;0.43;;;16.30;71.90;;;;;;5091514;28;20017;-77
2021/12/01 01:23:36;;;;;;;1.40;0.40;;;16.20;71.90;;;;;;5091228;28;20032;-77
2021/12/01 01:26:04;;;;;;;1.38;0.40;;;16.20;72.20;;;;;;5090992;28;20031;-77
2021/12/01 01:28:29;;;;;;;1.08;0.30;;;16.20;72.20;;;;;;5091115;28;20024;-77
2021/12/01 01:30:55;;;;;;;0.40;0.20;;;16.20;72.10;;;;;;5091008;28;20031;-77
2021/12/01 01:33:22;;;;;;;0.40;0.30;;;16.20;72.20;;;;;;5091144;28;20024;-77
2021/12/01 01:35:48;;;;;;;0.98;0.30;;;16.20;72.10;;;;;;5090885;28;20067;-77
2021/12/01 01:38:14;;;;;;;0.77;0.30;;;16.20;72.10;;;;;;5091099;28;20031;-77
2021/12/01 01:40:40;;;;;;;0.50;0.30;;;16.10;72.10;;;;;;5091344;28;20050;-77
2021/12/01 01:43:07;;;;;;;0.70;0.30;;;16.10;72.10;;;;;;5091317;28;20036;-77
2021/12/01 01:45:33;;;;;;;1.00;0.50;;;16.10;72.10;;;;;;5091060;28;20494;-77
2021/12/01 01:48:08;;;;;;;0.68;0.38;;;16.10;72.30;;;;;;5090803;28;20400;-77
2021/12/01 01:50:37;;;;;;;0.68;0.30;;;16.10;72.20;;;;;;5091055;28;20024;-77
2021/12/01 01:53:22;;;;;;;0.73;0.52;;;16.10;72.30;;;;;;5090732;28;20042;-77
2021/12/01 01:55:50;;;;;;;1.75;0.40;;;16.10;72.30;;;;;;5090821;28;20024;-77
2021/12/01 01:58:16;;;;;;;0.50;0.40;;;16.10;72.30;;;;;;5090821;28;20495;-78
2021/12/01 02:00:54;;;;;;;1.92;0.40;;;16.10;72.40;;;;;;5090606;28;20122;-78
2021/12/01 02:03:22;;;;;;;1.63;0.52;;;16.20;72.50;;;;;;5090911;28;20039;-77
2021/12/01 02:05:49;;;;;;;1.13;0.40;;;16.10;72.60;;;;;;5090640;28;20536;-77
2021/12/01 02:08:18;;;;;;;0.80;0.55;;;16.10;72.60;;;;;;5090802;28;20020;-77
2021/12/01 02:10:48;;;;;;;0.30;0.30;;;16.10;72.60;;;;;;5090647;28;20108;-77
2021/12/01 02:13:17;;;;;;;1.33;0.40;;;16.10;72.60;;;;;;5090734;28;20484;-76
2021/12/01 02:15:48;;;;;;;1.23;0.50;;;16.10;72.70;;;;;;5090481;28;20039;-77
2021/12/01 02:18:14;;;;;;;1.67;0.50;;;16.10;72.60;;;;;;5090531;28;20020;-77
2021/12/01 02:20:41;;;;;;;0.90;0.40;;;16.10;72.60;;;;;;5090470;28;20039;-76
2021/12/01 02:23:06;;;;;;;1.63;0.40;;;16.10;72.60;;;;;;5091008;28;20023;-77
2021/12/01 02:25:32;;;;;;;1.02;0.40;;;16.10;72.60;;;;;;5090899;28;20111;-78
2021/12/01 02:27:58;;;;;;;0.82;0.60;;;16.10;72.50;;;;;;5093283;28;20028;-77
2021/12/01 02:30:24;;;;;;;1.92;0.50;;;16.10;72.50;;;;;;5094214;28;20070;-78
2021/12/01 02:32:50;;;;;;;1.00;0.50;;;16.20;72.50;;;;;;5093805;28;20442;-78
2021/12/01 02:35:17;;;;;;;1.02;0.50;;;16.10;72.50;;;;;;5093971;28;20107;-77
2021/12/01 02:37:43;;;;;;;0.40;0.30;;;16.20;72.50;;;;;;5093805;28;20022;-78
2021/12/01 02:40:10;;;;;;;0.60;0.40;;;16.10;72.40;;;;;;5094392;28;20040;-78
2021/12/01 02:42:35;;;;;;;0.60;0.47;;;16.20;72.50;;;;;;5094115;28;20483;-77
2021/12/01 02:45:02;;;;;;;0.80;0.40;;;16.20;72.50;;;;;;5093750;28;20111;-77
2021/12/01 02:47:28;;;;;;;0.70;0.50;;;16.20;72.50;;;;;;5109382;28;20035;-77
2021/12/01 02:49:55;;;;;;;2.00;0.50;;;16.20;72.50;;;;;;5093521;28;20488;-77
2021/12/01 02:52:24;;;;;;;0.93;0.30;;;16.20;72.50;;;;;;5093809;28;20058;-78
2021/12/01 02:54:50;;;;;;;1.02;0.60;;;16.20;72.40;;;;;;5093584;28;20055;-77
2021/12/01 02:57:16;;;;;;;1.65;0.55;;;16.20;72.40;;;;;;5093699;28;20146;-77
2021/12/01 02:59:43;;;;;;;1.98;0.50;;;16.20;72.40;;;;;;5093289;28;20119;-78
2021/12/01 03:02:09;;;;;;;0.70;0.50;;;16.20;72.40;;;;;;5109590;28;20127;-77
2021/12/01 03:04:36;;;;;;;0.82;0.40;;;16.20;72.30;;;;;;5093812;28;20032;-78
2021/12/01 03:07:03;;;;;;;0.80;0.52;;;16.20;72.30;;;;;;5093279;28;20035;-78
2021/12/01 03:09:28;;;;;;;1.63;0.52;;;16.20;72.40;;;;;;5093505;28;20051;-78
2021/12/01 03:11:55;;;;;;;2.08;0.60;;;16.20;72.30;;;;;;5109014;28;20105;-77
2021/12/01 03:14:21;;;;;;;0.65;0.30;;;16.20;72.20;;;;;;5075331;28;20034;-77
2021/12/01 03:16:49;;;;;;;1.08;0.40;;;16.20;72.20;;;;;;5092965;28;20054;-77
2021/12/01 03:19:15;;;;;;;1.30;0.50;;;16.20;72.20;;;;;;5093292;28;20032;-77
2021/12/01 03:21:42;;;;;;;1.42;0.70;;;16.20;72.20;;;;;;5092938;28;20099;-78
2021/12/01 03:24:10;;;;;;;1.00;0.40;;;16.20;72.10;;;;;;5093394;28;20081;-76
2021/12/01 03:26:36;;;;;;;0.90;0.63;;;16.20;72.10;;;;;;5093495;28;20119;-77
2021/12/01 03:29:03;;;;;;;1.40;0.50;;;16.20;72.10;;;;;;5092831;28;20028;-78
2021/12/01 03:31:29;;;;;;;2.47;0.60;;;16.20;72.10;;;;;;5093026;28;20032;-77
2021/12/01 03:33:55;;;;;;;1.10;0.40;;;16.20;72.00;;;;;;5092806;28;20016;-77
2021/12/01 03:36:20;;;;;;;1.60;0.40;;;16.20;72.00;;;;;;5092891;28;20063;-77
2021/12/01 03:38:49;;;;;;;0.60;0.40;;;16.20;72.00;;;;;;5092217;28;20032;-77
2021/12/01 03:41:14;;;;;;;1.17;0.50;;;16.30;72.00;;;;;;5092799;28;20028;-77
2021/12/01 03:43:40;;;;;;;0.50;0.45;;;16.30;72.00;;;;;;5092459;28;20058;-76
2021/12/01 03:46:06;;;;;;;2.40;0.40;;;16.30;72.00;;;;;;5092818;28;20036;-77
2021/12/01 03:48:31;;;;;;;0.70;0.40;;;16.30;72.00;;;;;;5092727;28;20031;-77
2021/12/01 03:50:57;;;;;;;1.17;0.35;;;16.30;72.70;;;;;;5092494;28;20504;-77
2021/12/01 03:53:24;;;;;;;0.75;0.40;;;16.30;71.90;;;;;;5092624;28;20027;-76
2021/12/01 03:55:50;;;;;;;0.98;0.30;;;16.30;71.90;;;;;;5092414;28;20030;-77
2021/12/01 03:58:16;;;;;;;1.52;0.68;;;16.30;71.90;;;;;;5092421;28;20024;-78
2021/12/01 04:00:42;;;;;;;1.23;0.32;;;16.30;72.60;;;;;;5092211;28;20073;-77
2021/12/01 04:03:07;;;;;;;1.58;0.40;;;16.30;71.80;;;;;;5092555;28;20024;-77
2021/12/01 04:05:34;;;;;;;1.90;0.52;;;16.30;71.80;;;;;;5092398;28;20092;-78
2021/12/01 04:08:01;;;;;;;0.68;0.40;;;16.30;71.80;;;;;;5092140;28;20444;-77
2021/12/01 04:10:28;;;;;;;1.05;0.43;;;16.30;71.70;;;;;;5092282;28;20028;-78
2021/12/01 04:12:54;;;;;;;1.67;0.40;;;16.30;71.60;;;;;;5091931;28;20059;-77
2021/12/01 04:15:19;;;;;;;1.10;0.50;;;16.30;71.60;;;;;;5092686;28;20070;-77
2021/12/01 04:17:45;;;;;;;1.15;0.40;;;16.30;71.60;;;;;;5091793;28;20024;-77
2021/12/01 04:20:13;;;;;;;0.60;0.40;;;16.30;71.60;;;;;;5091980;28;20476;-77
2021/12/01 04:22:40;;;;;;;1.13;0.25;;;16.30;71.60;;;;;;5092405;28;20017;-78
2021/12/01 04:25:07;;;;;;;0.90;0.40;;;16.30;72.30;;;;;;5092336;28;20031;-78
2021/12/01 04:27:32;;;;;;;0.75;0.43;;;16.30;71.50;;;;;;5091906;28;20476;-77
2021/12/01 04:29:58;;;;;;;0.63;0.40;;;16.30;71.50;;;;;;5091715;28;20095;-77
2021/12/01 04:32:24;;;;;;;0.82;0.30;;;16.30;71.50;;;;;;5091888;28;20111;-77
2021/12/01 04:34:50;;;;;;;1.05;0.40;;;16.30;71.40;;;;;;5091717;28;20476;-77
2021/12/01 04:37:16;;;;;;;0.47;0.47;;;16.30;71.40;;;;;;5091810;28;20101;-77
2021/12/01 04:39:42;;;;;;;0.95;0.40;;;16.30;71.40;;;;;;5091541;28;20637;-77
2021/12/01 04:42:08;;;;;;;1.45;0.50;;;16.30;71.50;;;;;;5091841;28;20016;-78
2021/12/01 04:44:35;;;;;;;0.43;0.30;;;16.30;71.50;;;;;;5107418;28;20024;-78
2021/12/01 04:47:08;;;;;;;0.63;0.20;;;16.40;71.50;;;;;;5106930;28;20028;-78
2021/12/01 04:49:37;;;;;;;1.25;0.30;;;16.30;71.40;;;;;;5090924;28;20483;-78
2021/12/01 04:52:03;;;;;;;0.95;0.35;;;16.30;71.30;;;;;;5091315;28;20027;-77
2021/12/01 04:54:30;;;;;;;0.35;0.28;;;16.40;71.50;;;;;;5091557;28;20034;-78
2021/12/01 04:56:56;;;;;;;0.57;0.22;;;16.30;71.30;;;;;;5091315;28;20024;-78
2021/12/01 04:59:23;;;;;;;1.15;0.40;;;16.40;71.30;;;;;;5091423;28;20036;-77
2021/12/01 05:01:52;;;;;;;1.10;0.40;;;16.30;71.30;;;;;;5106859;28;20026;-78
2021/12/01 05:04:18;;;;;;;0.77;0.40;;;16.40;71.40;;;;;;5091388;28;20099;-78
2021/12/01 05:06:43;;;;;;;0.40;0.20;;;16.40;71.40;;;;;;5091036;28;20107;-78
2021/12/01 05:09:10;;;;;;;0.75;0.50;;;16.40;71.40;;;;;;5091511;28;20024;-78
2021/12/01 05:11:36;;;;;;;1.23;0.40;;;16.40;71.20;;;;;;5091870;28;20058;-77
2021/12/01 05:14:02;;;;;;;1.02;0.30;;;16.40;71.20;;;;;;5091198;28;20066;-78
2021/12/01 05:16:27;;;;;;;0.95;0.32;;;16.40;71.20;;;;;;5091282;28;20051;-78
2021/12/01 05:18:53;;;;;;;0.70;0.30;;;16.40;71.20;;;;;;5072963;28;20506;-77
2021/12/01 05:21:19;;;;;;;0.30;0.20;;;16.40;71.20;;;;;;5073115;28;20028;-77
2021/12/01 05:23:45;;;;;;;0.40;0.30;;;16.40;71.20;;;;;;5072744;28;20434;-77
2021/12/01 05:26:11;;;;;;;1.33;0.30;;;16.40;71.20;;;;;;5091304;28;20052;-78
2021/12/01 05:28:39;;;;;;;0.47;0.30;;;16.40;71.10;;;;;;5091497;28;20067;-77
2021/12/01 05:31:05;;;;;;;1.27;0.20;;;16.40;71.20;;;;;;5091578;28;20071;-77
2021/12/01 05:33:31;;;;;;;0.20;0.20;;;16.40;71.10;;;;;;5091124;28;20032;-77
2021/12/01 05:35:56;;;;;;;0.70;0.35;;;16.40;71.10;;;;;;5090934;28;20028;-78
2021/12/01 05:38:22;;;;;;;1.67;0.30;;;16.40;71.10;;;;;;5091027;28;20111;-78
2021/12/01 05:40:50;;;;;;;2.13;0.35;;;16.40;71.20;;;;;;5090902;28;20039;-77
2021/12/01 05:43:17;;;;;;;0.73;0.52;;;16.50;71.10;;;;;;5091093;28;20087;-77
2021/12/01 05:45:43;;;;;;;2.25;0.57;;;16.40;71.10;;;;;;5090759;28;20028;-77
2021/12/01 05:48:09;;;;;;;0.80;0.30;;;16.50;71.30;;;;;;5091193;28;20519;-77
2021/12/01 05:50:35;;;;;;;1.58;0.43;;;16.50;71.30;;;;;;5091198;28;20536;-77
2021/12/01 05:53:01;;;;;;;0.38;0.20;;;16.40;71.20;;;;;;5090679;28;20145;-77
2021/12/01 05:55:26;;;;;;;0.63;0.25;;;16.40;71.20;;;;;;5090978;28;20072;-77
2021/12/01 05:57:52;;;;;;;0.93;0.28;;;16.50;71.30;;;;;;5090712;28;20113;-77
2021/12/01 06:00:19;;;;;;;0.82;0.32;;;16.50;71.30;;;;;;5091209;28;20119;-77
2021/12/01 06:02:49;;;;;;;0.50;0.30;;;16.40;71.20;;;;;;5094568;28;20422;-77
2021/12/01 06:05:15;;;;;;;0.30;0.28;;;16.50;71.20;;;;;;5094609;28;20032;-77
2021/12/01 06:07:40;;;;;;;0.60;0.20;;;16.50;71.20;;;;;;5094479;28;20031;-77
2021/12/01 06:10:07;;;;;;;0.57;0.40;;;16.50;71.20;;;;;;5094911;28;20020;-78
2021/12/01 06:12:33;;;;;;;0.63;0.30;;;16.50;71.20;;;;;;5094496;28;20391;-77
2021/12/01 06:15:00;;;;;;;0.45;0.20;;;16.50;71.20;;;;;;5094209;28;20048;-77
2021/12/01 06:17:25;;;;;;;0.40;0.20;;;16.50;71.10;;;;;;5094447;28;20014;-77
2021/12/01 06:19:53;;;;;;;0.28;0.20;;;16.50;71.10;;;;;;5094026;28;20044;-77
2021/12/01 06:22:19;;;;;;;0.22;0.20;;;16.50;71.10;;;;;;5094221;28;20046;-77
2021/12/01 06:24:45;;;;;;;0.52;0.28;;;16.50;71.20;;;;;;5094136;28;20032;-78
2021/12/01 06:27:11;;;;;;;0.40;0.20;;;16.50;71.10;;;;;;5094021;28;20514;-78
2021/12/01 06:29:37;;;;;;;0.50;0.40;;;16.50;71.10;;;;;;5076584;28;20032;-79
2021/12/01 06:32:04;;;;;;;0.52;0.22;;;16.50;71.20;;;;;;5094016;28;20417;-77
2021/12/01 06:34:29;;;;;;;0.30;0.20;;;16.50;71.20;;;;;;5094181;28;20388;-78
2021/12/01 06:36:55;;;;;;;1.08;0.20;;;16.50;71.10;;;;;;5093967;28;20099;-76
2021/12/01 06:39:21;;;;;;;0.70;0.38;;;16.50;71.20;;;;;;5094018;28;20499;-78
2021/12/01 06:41:46;;;;;;;0.47;0.30;;;16.50;71.20;;;;;;5093819;28;20020;-77
2021/12/01 06:44:12;;;;;;;0.55;0.20;;;16.50;71.30;;;;;;5094099;28;20460;-78
2021/12/01 06:46:38;;;;;;;0.57;0.30;;;16.50;71.30;;;;;;5094111;28;20114;-77
2021/12/01 06:49:04;;;;;;;0.68;0.40;;;16.50;71.30;;;;;;5093682;28;20024;-77
2021/12/01 06:51:29;;;;;;;0.90;0.30;;;16.50;71.30;;;;;;5093775;28;20028;-76
2021/12/01 06:53:56;;;;;;;1.13;0.38;;;16.50;71.30;;;;;;5093651;28;20035;-77
2021/12/01 06:56:24;;;;;;;1.10;0.30;;;16.50;71.30;;;;;;5093756;28;20028;-77
2021/12/01 06:58:50;;;;;;;0.20;0.20;;;16.50;71.30;;;;;;5093343;28;20036;-77
2021/12/01 07:01:16;;;;;;;0.45;0.30;;;16.60;71.40;;;;;;5093677;28;20107;-78
2021/12/01 07:03:42;;;;;;;0.35;0.20;;;16.60;71.20;;;;;;5093350;28;20104;-78
2021/12/01 07:06:08;;;;;;;2.45;0.40;;;16.60;71.40;;;;;;5093890;28;20110;-78
2021/12/01 07:08:36;;;;;;;0.55;0.35;;;16.70;71.80;;;;;;5093542;28;20099;-78
2021/12/01 07:11:02;;;;;;;3.53;0.30;;;16.70;71.70;;;;;;5093267;28;20036;-78
2021/12/01 07:13:32;;;;;;;2.42;0.40;;;16.70;72.00;;;;;;5092556;28;20440;-78
2021/12/01 07:15:58;;;;;;;1.27;0.28;;;16.80;72.00;;;;;;5093073;28;20028;-78
2021/12/01 07:18:23;;;;;;;3.15;0.30;;;16.80;72.20;;;;;;5093237;28;20028;-79
2021/12/01 07:20:49;;;;;;;1.25;0.20;;;16.80;72.30;;;;;;5093080;28;20032;-78
2021/12/01 07:23:15;;;;;;;1.83;0.40;;;16.80;72.40;;;;;;5093202;28;20409;-79
2021/12/01 07:25:40;;;;;;;0.95;0.30;;;16.80;72.40;;;;;;5092881;28;20040;-79
2021/12/01 07:28:06;;;;;;;0.55;0.20;;;16.90;72.50;;;;;;5093405;28;20024;-80
2021/12/01 07:30:35;;;;;;;1.77;0.20;;;16.90;72.60;;;;;;5093079;28;20100;-79
2021/12/01 07:33:01;;;;;;;3.03;0.70;;;17.00;72.40;;;;;;5074664;28;20032;-79
2021/12/01 07:35:27;;;;;;;3.15;0.70;;;17.00;72.40;;;;;;5092955;28;20045;-79
2021/12/01 07:37:53;;;;;;;6.97;0.60;;;17.00;72.30;;;;;;5092744;28;20095;-79
2021/12/01 07:40:19;;;;;;;3.33;0.75;;;17.10;72.20;;;;;;5092670;28;20381;-78
2021/12/01 07:42:44;;;;;;;5.53;1.30;;;17.10;72.20;;;;;;5092661;28;20138;-78
2021/12/01 07:45:11;;;;;;;4.85;0.70;;;17.10;73.00;;;;;;5108453;28;20031;-77
2021/12/01 07:47:36;;;;;;;4.75;0.70;;;17.20;72.70;;;;;;5092892;28;20028;-79
2021/12/01 07:50:04;;;;;;;2.28;0.65;;;17.10;72.20;;;;;;5092587;28;20024;-80
2021/12/01 07:52:31;;;;;;;5.28;0.70;;;17.20;72.30;;;;;;5092494;28;20321;-80
2021/12/01 07:54:56;;;;;;;1.67;0.50;;;17.20;72.40;;;;;;5092399;28;20078;-78
2021/12/01 07:57:22;;;;;;;2.63;0.52;;;17.10;72.20;;;;;;5092579;28;20426;-78
2021/12/01 07:59:48;;;;;;;3.03;0.40;;;17.10;72.10;;;;;;5092118;28;20035;-78
2021/12/01 08:02:13;;;;;;;5.18;0.50;;;17.10;72.10;;;;;;5092409;28;20024;-78
2021/12/01 08:04:39;;;;;;;1.52;0.40;;;17.10;72.10;;;;;;5092800;28;20027;-78
2021/12/01 08:07:05;;;;;;;1.13;0.60;;;17.10;72.10;;;;;;5092713;28;20020;-77
2021/12/01 08:09:30;;;;;;;2.33;0.50;;;17.10;72.10;;;;;;5092317;28;20503;-77
2021/12/01 08:11:56;;;;;;;3.00;0.55;;;17.10;72.20;;;;;;5091841;28;20103;-76
2021/12/01 08:14:22;;;;;;;2.65;0.40;;;17.10;72.10;;;;;;5092272;28;20031;-77
2021/12/01 08:16:48;;;;;;;1.70;0.57;;;17.10;71.80;;;;;;5091857;28;20020;-79
2021/12/01 08:19:14;;;;;;;1.15;0.47;;;17.10;72.00;;;;;;5073997;28;20080;-81
2021/12/01 08:21:40;;;;;;;2.40;0.50;;;17.10;72.20;;;;;;5092013;28;20080;-78
2021/12/01 08:24:06;;;;;;;1.33;0.38;;;17.10;72.20;;;;;;5091868;28;20024;-80
2021/12/01 08:26:32;;;;;;;0.90;0.40;;;17.10;72.00;;;;;;5091956;28;20023;-79
2021/12/01 08:28:58;;;;;;;1.63;0.40;;;17.10;71.80;;;;;;5107339;28;20016;-81
2021/12/01 08:31:24;;;;;;;1.25;0.30;;;17.00;72.00;;;;;;5091940;28;20028;-80
2021/12/01 08:33:50;;;;;;;3.42;0.55;;;17.00;72.40;;;;;;5091613;28;20484;-80
2021/12/01 08:36:18;;;;;;;2.90;0.40;;;17.00;72.40;;;;;;5091846;28;20042;-81
2021/12/01 08:38:44;;;;;;;2.50;0.30;;;17.00;72.40;;;;;;5091542;28;20116;-80
2021/12/01 08:41:10;;;;;;;0.98;0.35;;;17.00;72.30;;;;;;5092019;28;20584;-78
2021/12/01 08:43:37;;;;;;;1.00;0.40;;;17.00;72.30;;;;;;5073702;28;20472;-80
2021/12/01 08:46:04;;;;;;;3.75;0.45;;;17.00;72.40;;;;;;5088311;28;20069;-77
2021/12/01 08:48:30;;;;;;;0.82;0.30;;;17.00;73.10;;;;;;5071569;28;20062;-79
2021/12/01 08:50:58;;;;;;;2.25;0.60;;;17.00;72.40;;;;;;5071272;28;20060;-78
2021/12/01 08:53:24;;;;;;;4.85;0.40;;;17.00;72.30;;;;;;5071399;28;20028;-79
2021/12/01 08:55:49;;;;;;;0.82;0.40;;;17.00;72.40;;;;;;5071137;28;20024;-79
2021/12/01 08:58:16;;;;;;;1.27;0.47;;;17.00;72.40;;;;;;5071315;28;20017;-79
2021/12/01 09:00:45;;;;;;;1.50;0.60;;;17.00;72.40;;;;;;5071013;28;20472;-79
2021/12/01 09:03:16;;;;;;;3.67;0.50;;;16.90;72.40;;;;;;5071382;28;20012;-79
2021/12/01 09:05:44;;;;;;;1.30;0.30;;;16.90;72.40;;;;;;5071109;28;20034;-79
2021/12/01 09:08:10;;;;;;;1.95;0.40;;;17.00;73.10;;;;;;5071397;28;20016;-77
2021/12/01 09:10:36;;;;;;;0.98;0.40;;;16.90;72.40;;;;;;5071507;28;20017;-79
2021/12/01 09:13:04;;;;;;;0.90;0.30;;;17.00;72.40;;;;;;5070968;28;20160;-80
2021/12/01 09:15:29;;;;;;;6.57;0.50;;;16.90;72.40;;;;;;5071290;28;20063;-80
2021/12/01 09:17:57;;;;;;;2.00;0.30;;;16.90;72.30;;;;;;5071035;28;20031;-79
2021/12/01 09:20:23;;;;;;;1.95;0.68;;;16.90;72.30;;;;;;5071099;28;20037;-79
2021/12/01 09:22:48;;;;;;;2.00;0.40;;;16.90;72.30;;;;;;5070919;28;20017;-80
2021/12/01 09:25:14;;;;;;;2.20;0.40;;;16.90;72.30;;;;;;5071148;28;20044;-79
2021/12/01 09:27:40;;;;;;;1.50;0.50;;;16.90;72.30;;;;;;5070875;28;20166;-77
2021/12/01 09:30:07;;;;;;;1.42;0.40;;;16.90;72.20;;;;;;5071384;28;20024;-80
2021/12/01 09:32:35;;;;;;;1.63;0.60;;;16.90;72.40;;;;;;5070916;28;20024;-80
2021/12/01 09:35:01;;;;;;;1.30;0.30;;;16.90;72.30;;;;;;5070607;28;20040;-79
2021/12/01 09:37:27;;;;;;;1.13;0.50;;;16.90;72.30;;;;;;5075038;28;20023;-80
2021/12/01 09:39:53;;;;;;;1.63;0.30;;;16.90;72.40;;;;;;5074601;28;20489;-79
2021/12/01 09:42:19;;;;;;;1.73;0.75;;;16.90;72.40;;;;;;5074926;28;20547;-80
2021/12/01 09:44:45;;;;;;;0.55;0.30;;;16.90;72.40;;;;;;5073479;28;20435;-79
2021/12/01 09:47:11;;;;;;;1.10;0.35;;;16.90;72.40;;;;;;5074643;28;20205;-79
2021/12/01 09:49:36;;;;;;;0.88;0.50;;;16.90;72.40;;;;;;5075101;28;20067;-79
2021/12/01 09:52:03;;;;;;;1.55;0.43;;;16.90;72.50;;;;;;5074563;28;20548;-79
2021/12/01 09:54:28;;;;;;;2.75;0.60;;;16.90;72.50;;;;;;5074701;28;20070;-80
2021/12/01 09:56:54;;;;;;;1.02;0.30;;;16.90;72.60;;;;;;5074359;28;20439;-79
2021/12/01 09:59:20;;;;;;;0.55;0.30;;;16.80;72.50;;;;;;5074583;28;20036;-79
2021/12/01 10:01:45;;;;;;;2.15;0.55;;;16.90;72.50;;;;;;5074375;28;20025;-79
2021/12/01 10:04:11;;;;;;;2.13;0.40;;;16.80;72.50;;;;;;5074524;28;20103;-78
2021/12/01 10:06:37;;;;;;;2.42;0.60;;;16.90;72.50;;;;;;5074673;28;20044;-79
2021/12/01 10:09:07;;;;;;;2.40;0.52;;;16.90;73.30;;;;;;5072797;28;20036;-79
2021/12/01 10:11:40;;;;;;;1.05;0.50;;;16.90;72.50;;;;;;5073036;28;20377;-79
2021/12/01 10:14:10;;;;;;;2.28;0.60;;;16.80;72.40;;;;;;5074822;28;20024;-79
2021/12/01 10:16:43;;;;;;;2.05;0.55;;;16.80;72.40;;;;;;5074499;28;20017;-77
2021/12/01 10:19:11;;;;;;;1.55;0.55;;;16.90;72.40;;;;;;5074386;28;20036;-78
2021/12/01 10:21:47;;;;;;;3.80;0.50;;;16.90;72.30;;;;;;5074430;28;20109;-79
2021/12/01 10:24:20;;;;;;;2.80;0.50;;;16.90;72.20;;;;;;5074245;28;20051;-79
2021/12/01 10:26:50;;;;;;;1.27;0.30;;;16.90;72.00;;;;;;5073855;28;20040;-79
2021/12/01 10:29:18;;;;;;;2.78;0.50;;;16.90;71.90;;;;;;5074123;28;20025;-78
2021/12/01 10:31:47;;;;;;;1.52;0.50;;;17.00;71.80;;;;;;5073751;28;20046;-79
2021/12/01 10:34:18;;;;;;;1.23;0.38;;;17.00;71.80;;;;;;5073818;28;20029;-79
2021/12/01 10:36:46;;;;;;;1.38;0.30;;;17.00;71.70;;;;;;5073723;28;20027;-79
2021/12/01 10:39:12;;;;;;;1.08;0.68;;;17.10;71.70;;;;;;5072418;28;20033;-79
2021/12/01 10:41:40;;;;;;;1.65;0.40;;;17.10;71.70;;;;;;5074096;28;20029;-79
2021/12/01 10:44:19;;;;;;;0.68;0.30;;;17.10;71.70;;;;;;5074084;28;20465;-79
2021/12/01 10:46:51;;;;;;;2.33;0.65;;;17.10;71.70;;;;;;5072478;28;20033;-78
2021/12/01 10:49:30;;;;;;;3.13;0.47;;;17.10;71.70;;;;;;5073596;28;20025;-78
2021/12/01 10:51:56;;;;;;;1.30;0.50;;;17.00;71.60;;;;;;5071975;28;20032;-79
2021/12/01 10:54:22;;;;;;;1.60;0.50;;;17.10;71.50;;;;;;5073624;28;20052;-78
2021/12/01 10:57:21;;;;;;;1.23;0.50;;;17.10;71.50;;;;;;5072906;28;20028;-79
2021/12/01 10:59:52;;;;;;;1.10;0.40;;;17.10;71.50;;;;;;5064614;28;20071;-79
2021/12/01 11:02:19;;;;;;;1.40;0.40;;;17.10;71.40;;;;;;5073262;28;20487;-79
2021/12/01 11:04:52;;;;;;;3.55;0.60;;;17.10;71.30;;;;;;5072572;28;20036;-79
2021/12/01 11:07:25;;;;;;;4.55;0.57;;;17.10;71.10;;;;;;5070437;28;20021;-78
2021/12/01 11:10:10;;;;;;;2.50;0.45;;;17.20;71.00;;;;;;5070268;28;20414;-78
2021/12/01 11:12:36;;;;;;;1.67;0.30;;;17.20;70.90;;;;;;5072761;28;20541;-79
2021/12/01 11:15:20;;;;;;;1.02;0.30;;;17.20;70.80;;;;;;5071872;28;20024;-80
2021/12/01 11:17:46;;;;;;;1.80;0.60;;;17.30;70.60;;;;;;5072591;28;20029;-79
2021/12/01 11:20:30;;;;;;;1.13;0.40;;;17.30;70.50;;;;;;5072847;28;20041;-79
2021/12/01 11:23:24;;;;;;;1.23;0.50;;;17.30;70.30;;;;;;5071899;28;20044;-79
2021/12/01 11:26:14;;;;;;;1.35;0.50;;;17.40;70.00;;;;;;5071275;28;20032;-79
2021/12/01 11:28:40;;;;;;;2.17;0.82;;;17.40;70.00;;;;;;5072703;28;20584;-80
2021/12/01 11:31:09;;;;;;;2.88;1.00;;;17.80;69.30;;;;;;5073339;28;20099;-80
2021/12/01 11:33:35;;;;;;;1.73;0.70;;;19.00;65.60;;;;;;5073124;28;20101;-80
2021/12/01 11:36:07;;;;;;;2.15;0.77;;;19.70;63.10;;;;;;5072539;28;20117;-80
2021/12/01 11:38:34;;;;;;;2.13;0.80;;;20.50;60.50;;;;;;5054804;28;20436;-79
2021/12/01 11:41:02;;;;;;;1.67;0.50;;;20.90;59.30;;;;;;5072351;28;20036;-80
2021/12/01 11:43:30;;;;;;;2.63;0.70;;;20.70;59.40;;;;;;5060746;28;20381;-79
2021/12/01 11:45:57;;;;;;;3.65;0.73;;;20.00;61.20;;;;;;5072047;28;20062;-82
2021/12/01 11:48:26;;;;;;;2.30;0.88;;;20.00;61.70;;;;;;5071010;28;20384;-80
2021/12/01 11:50:58;;;;;;;1.85;0.70;;;20.50;60.80;;;;;;5071062;28;20103;-80
2021/12/01 11:53:32;;;;;;;1.70;0.60;;;21.10;59.20;;;;;;5072276;28;20024;-80
2021/12/01 11:56:12;;;;;;;4.53;0.70;;;22.10;57.30;;;;;;5070622;28;20078;-79
2021/12/01 11:58:41;;;;;;;1.67;0.60;;;22.80;55.40;;;;;;5059706;28;20385;-80
2021/12/01 12:01:21;;;;;;;1.75;0.60;;;23.40;54.00;;;;;;5070698;28;20481;-80
2021/12/01 12:03:54;;;;;;;1.23;0.50;;;23.40;53.70;;;;;;5068857;28;20032;-78
2021/12/01 12:06:25;;;;;;;1.42;0.50;;;23.60;53.50;;;;;;5068311;28;20162;-80
2021/12/01 12:08:53;;;;;;;1.42;0.60;;;23.80;52.70;;;;;;5070318;28;20028;-80
2021/12/01 12:11:43;;;;;;;0.90;0.60;;;23.30;53.60;;;;;;5067863;28;20448;-80
2021/12/01 12:14:18;;;;;;;1.65;0.50;;;22.20;56.00;;;;;;5069433;28;20434;-80
2021/12/01 12:17:10;;;;;;;1.53;0.50;;;21.70;57.50;;;;;;5067981;28;20017;-80
2021/12/01 12:19:53;;;;;;;1.88;0.50;;;21.30;58.60;;;;;;5070159;28;20344;-79
2021/12/01 12:22:42;;;;;;;1.00;0.63;;;21.00;59.40;;;;;;5067719;28;20081;-79
2021/12/01 12:25:12;;;;;;;2.67;0.70;;;20.70;60.10;;;;;;5069253;28;20016;-79
2021/12/01 12:27:47;;;;;;;0.98;0.60;;;20.60;60.70;;;;;;5070562;28;20384;-79
2021/12/01 12:30:15;;;;;;;;;;;20.50;61.50;;;;;;5070327;28;20037;-79
2021/12/01 12:32:43;;;;;;;0.80;0.52;;;20.40;61.90;;;;;;5070085;28;20433;-79
2021/12/01 12:35:13;;;;;;;1.17;0.50;;;20.30;62.30;;;;;;5070276;28;20017;-79
2021/12/01 12:37:40;;;;;;;1.23;0.45;;;20.20;62.50;;;;;;5060648;28;20074;-79
2021/12/01 12:40:28;;;;;;;1.25;0.60;;;20.10;62.80;;;;;;5070413;28;20158;-79
2021/12/01 12:43:13;;;;;;;1.95;0.43;;;20.10;62.90;;;;;;5066962;28;20503;-79
2021/12/01 12:45:42;;;;;;;1.70;0.60;;;20.00;63.10;;;;;;5068266;28;20020;-79
2021/12/01 12:48:26;;;;;;;1.00;0.50;;;20.00;63.40;;;;;;5070629;28;20032;-79
2021/12/01 12:51:16;;;;;;;2.35;0.60;;;20.00;63.60;;;;;;5070473;28;20131;-78
2021/12/01 12:54:01;;;;;;;0.60;0.38;;;19.90;63.70;;;;;;5069414;28;20040;-79
2021/12/01 12:56:30;;;;;;;1.08;0.40;;;19.90;63.90;;;;;;5071527;28;20024;-79
2021/12/01 12:59:26;;;;;;;1.52;0.50;;;19.90;63.90;;;;;;5070402;28;20036;-79
2021/12/01 13:02:15;;;;;;;0.67;0.40;;;19.90;63.90;;;;;;5051021;28;20099;-79
2021/12/01 13:04:51;;;;;;;1.52;0.47;;;19.80;64.10;;;;;;5043834;28;20275;-79